createdAt,value
2019-02-11T11:24:42.854Z,1000.82
2019-02-11T11:25:42.789Z,1000.84
2019-02-11T11:26:42.788Z,1000.76
2019-02-11T11:27:42.769Z,1000.76
2019-02-11T11:28:42.792Z,1000.78
2019-02-11T11:29:42.754Z,1000.69
2019-02-11T11:30:42.746Z,1000.65
2019-02-11T11:31:42.900Z,1000.63
2019-02-11T11:32:42.725Z,1000.70
2019-02-11T11:33:42.705Z,1000.72
2019-02-11T11:34:42.750Z,1000.79
2019-02-11T11:35:42.692Z,1000.83
2019-02-11T11:36:42.707Z,1000.93
2019-02-11T11:37:42.674Z,1000.89
2019-02-11T11:38:42.662Z,1000.89
2019-02-11T11:39:42.694Z,1000.96
2019-02-11T11:40:42.675Z,1000.93
2019-02-11T11:41:42.613Z,1000.95
2019-02-11T11:42:42.639Z,1001.02
2019-02-11T11:43:42.651Z,1000.94
2019-02-11T11:44:42.634Z,1001.04
2019-02-11T11:45:42.578Z,1001.01
2019-02-11T11:46:47.061Z,1001.03
2019-02-11T11:48:07.889Z,1001.05
2019-02-11T11:49:07.874Z,1001.05
2019-02-11T11:50:07.888Z,1001.07
2019-02-11T11:51:08.723Z,1001.09
2019-02-11T11:52:07.861Z,1001.07
2019-02-11T11:53:07.869Z,1001.17
2019-02-11T11:54:07.815Z,1001.16
2019-02-11T11:55:07.799Z,1001.13
2019-02-11T11:56:07.797Z,1001.13
2019-02-11T11:57:07.800Z,1001.09
2019-02-11T11:58:07.844Z,1001.09
2019-02-11T11:59:07.821Z,1001.07
2019-02-11T12:00:38.616Z,1001.06
2019-02-11T12:01:33.553Z,1001.14
2019-02-11T12:02:33.387Z,1001.16
2019-02-11T12:03:33.350Z,1001.08
2019-02-11T12:04:33.354Z,1001.06
2019-02-11T12:05:33.331Z,1001.02
2019-02-11T12:06:33.323Z,1001.00
2019-02-11T12:07:33.382Z,1000.97
2019-02-11T12:08:33.317Z,1001.07
2019-02-11T12:09:33.315Z,1000.93
2019-02-11T12:10:33.367Z,1001.00
2019-02-11T12:11:33.306Z,1001.01
2019-02-11T12:12:33.297Z,1001.03
2019-02-11T12:13:33.284Z,1001.03
2019-02-11T12:14:33.266Z,1001.08
2019-02-11T12:15:36.338Z,1001.08
2019-02-11T12:16:33.208Z,1001.13
2019-02-11T12:17:33.207Z,1001.18
2019-02-11T12:18:33.204Z,1001.14
2019-02-11T12:19:33.173Z,1001.14
2019-02-11T12:20:34.499Z,1001.10
2019-02-11T12:21:33.173Z,1001.15
2019-02-11T12:22:33.161Z,1001.18
2019-02-11T12:23:33.146Z,1001.17
2019-02-11T12:24:33.125Z,1001.17
2019-02-11T12:25:33.140Z,1001.11
2019-02-11T12:26:33.106Z,1001.21
2019-02-11T12:27:33.109Z,1001.26
2019-02-11T12:28:33.083Z,1001.21
2019-02-11T12:29:33.077Z,1001.37
2019-02-11T12:30:33.096Z,1001.34
2019-02-11T12:31:33.057Z,1001.45
2019-02-11T12:32:33.058Z,1001.45
2019-02-11T12:33:33.038Z,1001.56
2019-02-11T12:34:33.021Z,1001.60
2019-02-11T12:35:33.007Z,1001.60
2019-02-11T12:36:33.010Z,1001.61
2019-02-11T12:37:32.987Z,1001.55
2019-02-11T12:38:33.005Z,1001.57
2019-02-11T12:39:32.975Z,1001.58
2019-02-11T12:40:32.988Z,1001.52
2019-02-11T12:41:32.960Z,1001.59
2019-02-11T12:42:32.961Z,1001.55
2019-02-11T12:43:32.939Z,1001.57
2019-02-11T12:44:32.931Z,1001.57
2019-02-11T12:45:34.131Z,1001.52
2019-02-11T12:46:32.893Z,1001.60
2019-02-11T12:47:32.881Z,1001.54
2019-02-11T12:48:32.889Z,1001.60
2019-02-11T12:49:33.077Z,1001.60
2019-02-11T12:50:32.877Z,1001.69
2019-02-11T12:51:32.898Z,1001.69
2019-02-11T12:52:32.830Z,1001.74
2019-02-11T12:53:32.819Z,1001.74
2019-02-11T12:54:33.201Z,1001.78
2019-02-11T12:55:32.790Z,1001.81
2019-02-11T12:56:32.808Z,1001.84
2019-02-11T12:57:32.818Z,1001.84
2019-02-11T12:58:32.751Z,1001.88
2019-02-11T12:59:32.753Z,1001.93
2019-02-11T13:00:32.758Z,1001.99
2019-02-11T13:01:32.778Z,1002.02
2019-02-11T13:02:32.722Z,1002.03
2019-02-11T13:03:32.712Z,1002.04
2019-02-11T13:04:32.694Z,1001.98
2019-02-11T13:05:45.224Z,1002.12
2019-02-11T13:06:57.762Z,1002.08
2019-02-11T13:07:57.764Z,1002.11
2019-02-11T13:08:57.768Z,1002.10
2019-02-11T13:09:57.728Z,1002.16
2019-02-11T13:10:57.756Z,1002.10
2019-02-11T13:11:57.722Z,1002.12
2019-02-11T13:12:57.699Z,1002.20
2019-02-11T13:13:57.722Z,1002.16
2019-02-11T13:14:57.691Z,1002.21
2019-02-11T13:16:02.135Z,1002.14
2019-02-11T13:16:57.653Z,1002.26
2019-02-11T13:17:57.675Z,1002.25
2019-02-11T13:18:57.625Z,1002.40
2019-02-11T13:20:08.521Z,1002.30
2019-02-11T13:21:22.857Z,1002.30
2019-02-11T13:22:22.826Z,1002.38
2019-02-11T13:23:22.813Z,1002.36
2019-02-11T13:24:22.822Z,1002.44
2019-02-11T13:25:22.792Z,1002.39
2019-02-11T13:26:25.691Z,1002.36
2019-02-11T13:27:22.758Z,1002.36
2019-02-11T13:28:22.762Z,1002.41
2019-02-11T13:29:22.753Z,1002.34
2019-02-11T13:30:22.748Z,1002.43
2019-02-11T13:31:22.729Z,1002.42
2019-02-11T13:32:22.726Z,1002.41
2019-02-11T13:33:22.696Z,1002.39
2019-02-11T13:34:22.700Z,1002.41
2019-02-11T13:35:22.703Z,1002.40
2019-02-11T13:36:22.667Z,1002.39
2019-02-11T13:37:22.659Z,1002.45
2019-02-11T13:38:22.663Z,1002.38
2019-02-11T13:39:22.644Z,1002.46
2019-02-11T13:40:22.673Z,1002.38
2019-02-11T13:41:22.632Z,1002.40
2019-02-11T13:42:22.604Z,1002.50
2019-02-11T13:43:22.602Z,1002.45
2019-02-11T13:44:22.585Z,1002.56
2019-02-11T13:45:22.590Z,1002.50
2019-02-11T13:46:22.684Z,1002.60
2019-02-11T13:47:22.565Z,1002.57
2019-02-11T13:48:22.551Z,1002.55
2019-02-11T13:49:22.547Z,1002.61
2019-02-11T13:50:22.520Z,1002.60
2019-02-11T13:51:22.562Z,1002.68
2019-02-11T13:52:22.523Z,1002.77
2019-02-11T13:53:22.494Z,1002.74
2019-02-11T13:54:22.480Z,1002.78
2019-02-11T13:55:22.468Z,1002.74
2019-02-11T13:56:22.455Z,1002.80
2019-02-11T13:57:22.491Z,1002.83
2019-02-11T13:58:22.432Z,1002.88
2019-02-11T13:59:22.412Z,1002.83
2019-02-11T14:00:22.466Z,1002.97
2019-02-11T14:01:22.397Z,1002.95
2019-02-11T14:02:22.401Z,1002.98
2019-02-11T14:03:22.381Z,1003.02
2019-02-11T14:04:22.386Z,1003.19
2019-02-11T14:05:22.425Z,1003.10
2019-02-11T14:06:22.382Z,1003.09
2019-02-11T14:07:22.361Z,1003.09
2019-02-11T14:08:22.343Z,1003.16
2019-02-11T14:09:22.333Z,1003.10
2019-02-11T14:10:22.316Z,1003.15
2019-02-11T14:11:22.290Z,1003.13
2019-02-11T14:12:22.477Z,1003.14
2019-02-11T14:13:22.311Z,1003.20
2019-02-11T14:14:22.303Z,1003.26
2019-02-11T14:15:22.247Z,1003.20
2019-02-11T14:16:22.251Z,1003.21
2019-02-11T14:17:22.214Z,1003.21
2019-02-11T14:18:22.206Z,1003.25
2019-02-11T14:19:22.223Z,1003.28
2019-02-11T14:20:22.218Z,1003.30
2019-02-11T14:21:22.197Z,1003.30
2019-02-11T14:22:22.179Z,1003.34
2019-02-11T14:23:22.200Z,1003.37
2019-02-11T14:24:22.145Z,1003.41
2019-02-11T14:25:40.572Z,1003.43
2019-02-11T14:26:47.958Z,1003.51
2019-02-11T14:27:47.985Z,1003.58
2019-02-11T14:28:49.725Z,1003.69
2019-02-11T14:29:47.936Z,1003.73
2019-02-11T14:30:47.907Z,1003.70
2019-02-11T14:31:47.898Z,1003.75
2019-02-11T14:32:47.901Z,1003.91
2019-02-11T14:33:47.987Z,1003.82
2019-02-11T14:34:47.926Z,1003.87
2019-02-11T14:35:47.920Z,1003.94
2019-02-11T14:36:47.926Z,1003.95
2019-02-11T14:37:47.825Z,1003.97
2019-02-11T14:38:47.845Z,1003.90
2019-02-11T14:39:47.812Z,1003.94
2019-02-11T14:40:48.093Z,1003.92
2019-02-11T14:41:47.821Z,1003.86
2019-02-11T14:42:47.775Z,1003.92
2019-02-11T14:43:47.800Z,1003.90
2019-02-11T14:44:47.773Z,1003.92
2019-02-11T14:45:47.871Z,1003.91
2019-02-11T14:46:47.729Z,1003.94
2019-02-11T14:47:47.801Z,1003.93
2019-02-11T14:48:47.723Z,1003.96
2019-02-11T14:49:47.748Z,1004.00
2019-02-11T14:50:47.687Z,1003.97
2019-02-11T14:51:47.704Z,1004.02
2019-02-11T14:52:47.667Z,1004.03
2019-02-11T14:53:47.888Z,1004.00
2019-02-11T14:54:47.890Z,1003.95
2019-02-11T14:55:47.634Z,1004.03
2019-02-11T14:56:47.653Z,1004.03
2019-02-11T14:57:47.621Z,1004.08
2019-02-11T14:58:47.602Z,1004.08
2019-02-11T14:59:47.586Z,1004.10
2019-02-11T15:00:47.571Z,1004.14
2019-02-11T15:01:47.563Z,1004.16
2019-02-11T15:02:47.583Z,1004.12
2019-02-11T15:03:47.992Z,1004.17
2019-02-11T15:04:47.542Z,1004.16
2019-02-11T15:05:47.527Z,1004.14
2019-02-11T15:06:47.509Z,1004.27
2019-02-11T15:07:47.499Z,1004.28
2019-02-11T15:08:47.507Z,1004.26
2019-02-11T15:09:48.344Z,1004.26
2019-02-11T15:10:47.455Z,1004.30
2019-02-11T15:11:47.511Z,1004.27
2019-02-11T15:12:47.470Z,1004.24
2019-02-11T15:13:47.443Z,1004.24
2019-02-11T15:14:47.440Z,1004.28
2019-02-11T15:15:47.417Z,1004.21
2019-02-11T15:16:47.398Z,1004.27
2019-02-11T15:17:47.388Z,1004.26
2019-02-11T15:18:47.395Z,1004.26
2019-02-11T15:19:47.357Z,1004.33
2019-02-11T15:20:47.367Z,1004.25
2019-02-11T15:21:47.344Z,1004.24
2019-02-11T15:22:47.335Z,1004.27
2019-02-11T15:23:47.436Z,1004.27
2019-02-11T15:24:47.326Z,1004.38
2019-02-11T15:25:47.303Z,1004.38
2019-02-11T15:26:47.292Z,1004.43
2019-02-11T15:27:47.276Z,1004.37
2019-02-11T15:28:47.272Z,1004.36
2019-02-11T15:29:47.253Z,1004.46
2019-02-11T15:30:47.238Z,1004.54
2019-02-11T15:31:47.284Z,1004.52
2019-02-11T15:32:47.270Z,1004.63
2019-02-11T15:33:48.228Z,1004.60
2019-02-11T15:34:47.190Z,1004.60
2019-02-11T15:35:47.249Z,1004.66
2019-02-11T15:36:47.177Z,1004.75
2019-02-11T15:37:47.175Z,1004.84
2019-02-11T15:38:47.152Z,1004.81
2019-02-11T15:39:47.531Z,1004.71
2019-02-11T15:40:47.143Z,1004.92
2019-02-11T15:41:47.116Z,1004.63
2019-02-11T15:42:47.116Z,1004.64
2019-02-11T15:43:47.108Z,1004.72
2019-02-11T15:44:47.094Z,1004.84
2019-02-11T15:45:47.101Z,1004.81
2019-02-11T15:46:47.062Z,1004.80
2019-02-11T15:47:47.070Z,1004.86
2019-02-11T15:48:47.121Z,1004.92
2019-02-11T15:49:47.039Z,1004.95
2019-02-11T15:50:47.039Z,1005.02
2019-02-11T15:51:47.143Z,1005.08
2019-02-11T15:52:47.038Z,1005.08
2019-02-11T15:53:47.086Z,1005.11
2019-02-11T15:54:47.001Z,1005.17
2019-02-11T15:55:46.978Z,1005.15
2019-02-11T15:56:46.960Z,1005.19
2019-02-11T15:57:46.945Z,1005.30
2019-02-11T15:58:46.932Z,1005.28
2019-02-11T15:59:46.925Z,1005.32
2019-02-11T16:00:46.914Z,1005.37
2019-02-11T16:01:46.905Z,1005.41
2019-02-11T16:02:46.905Z,1005.34
2019-02-11T16:03:46.888Z,1005.35
2019-02-11T16:04:46.987Z,1005.35
2019-02-11T16:05:49.610Z,1005.41
2019-02-11T16:06:46.849Z,1005.43
2019-02-11T16:07:46.862Z,1005.48
2019-02-11T16:08:46.831Z,1005.48
2019-02-11T16:09:46.814Z,1005.41
2019-02-11T16:10:46.805Z,1005.43
2019-02-11T16:11:46.860Z,1005.48
2019-02-11T16:12:46.789Z,1005.50
2019-02-11T16:13:46.783Z,1005.54
2019-02-11T16:14:46.765Z,1005.56
2019-02-11T16:15:46.773Z,1005.56
2019-02-11T16:16:46.782Z,1005.58
2019-02-11T16:17:46.752Z,1005.65
2019-02-11T16:18:51.859Z,1005.66
2019-02-11T16:19:46.710Z,1005.68
2019-02-11T16:20:46.743Z,1005.76
2019-02-11T16:21:46.691Z,1005.82
2019-02-11T16:22:46.676Z,1005.79
2019-02-11T16:23:46.729Z,1005.80
2019-02-11T16:24:46.663Z,1005.87
2019-02-11T16:25:46.653Z,1005.92
2019-02-11T16:26:46.658Z,1005.96
2019-02-11T16:27:46.637Z,1006.01
2019-02-11T16:28:46.616Z,1006.01
2019-02-11T16:29:46.598Z,1006.05
2019-02-11T16:30:46.598Z,1006.05
2019-02-11T16:31:46.607Z,1006.08
2019-02-11T16:32:46.574Z,1006.09
2019-02-11T16:33:46.567Z,1006.15
2019-02-11T16:34:46.553Z,1006.18
2019-02-11T16:35:46.546Z,1006.13
2019-02-11T16:36:46.527Z,1006.22
2019-02-11T16:37:46.518Z,1006.24
2019-02-11T16:38:46.516Z,1006.37
2019-02-11T16:39:46.495Z,1006.35
2019-02-11T16:40:46.479Z,1006.41
2019-02-11T16:41:46.476Z,1006.51
2019-02-11T16:42:46.467Z,1006.49
2019-02-11T16:43:46.450Z,1006.50
2019-02-11T16:44:46.450Z,1006.53
2019-02-11T16:45:46.446Z,1006.56
2019-02-11T16:46:46.419Z,1006.62
2019-02-11T16:47:46.414Z,1006.64
2019-02-11T16:48:46.439Z,1006.71
2019-02-11T16:49:46.392Z,1006.73
2019-02-11T16:50:46.389Z,1006.74
2019-02-11T16:51:46.402Z,1006.74
2019-02-11T16:52:46.373Z,1006.77
2019-02-11T16:53:46.391Z,1006.79
2019-02-11T16:54:46.332Z,1006.84
2019-02-11T16:55:46.353Z,1006.83
2019-02-11T16:56:46.343Z,1006.92
2019-02-11T16:57:46.319Z,1006.92
2019-02-11T16:58:46.306Z,1006.94
2019-02-11T16:59:46.300Z,1006.96
2019-02-11T17:00:46.274Z,1007.02
2019-02-11T17:01:46.264Z,1007.02
2019-02-11T17:02:46.246Z,1006.98
2019-02-11T17:03:46.268Z,1007.05
2019-02-11T17:04:46.221Z,1007.03
2019-02-11T17:05:46.214Z,1007.12
2019-02-11T17:06:46.198Z,1007.17
2019-02-11T17:07:46.204Z,1007.11
2019-02-11T17:08:46.186Z,1007.14
2019-02-11T17:09:46.169Z,1007.17
2019-02-11T17:10:46.178Z,1007.23
2019-02-11T17:11:46.161Z,1007.28
2019-02-11T18:19:45.410Z,1008.53
